Wetterdaten: Woche 28.11.16 - 04.12.16 (KW48)
Datum Zeit Temp. Aussen Temp. o. S. +5cm Feuchte Auss BlattFeu 1 Luftdruck Regen Sonnenschein Regendauer Solar Windben Empfang
28.11.2016 00:00 2,6 C 2,2 C 0,9 C 94 % 15 lf 1024,2 hPa 0,0 l/m 0,00 h 0,00 h 5 W/m 13,8 km/h (3 Bft) 93,62 %
28.11.2016 01:00 2,4 C 1,2 C -0,4 C 95 % 15 lf 1024,5 hPa 0,0 l/m 0,00 h 0,00 h 5 W/m 10,8 km/h (2 Bft) 97,19 %
28.11.2016 02:00 1,8 C 0,7 C -1,3 C 96 % 15 lf 1024,9 hPa 0,0 l/m 0,00 h 0,00 h 5 W/m 9,0 km/h (2 Bft) 96,61 %
28.11.2016 03:00 0,8 C -1,0 C -2,6 C 95 % 15 lf 1025,5 hPa 0,0 l/m 0,00 h 0,03 h 0 W/m 5,8 km/h (2 Bft) 96,62 %
28.11.2016 04:00 -0,2 C -1,8 C -3,0 C 95 % 15 lf 1025,9 hPa 0,0 l/m 0,00 h 0,10 h 0 W/m 3,4 km/h (1 Bft) 94,08 %
28.11.2016 05:00 -1,2 C -2,9 C -3,9 C 95 % 15 lf 1026,3 hPa 0,0 l/m 0,00 h 0,00 h 5 W/m 0,8 km/h (0 Bft) 95,85 %
28.11.2016 06:00 -2,0 C -3,4 C -4,2 C 95 % 5 lf 1026,8 hPa 0,0 l/m 0,00 h 0,00 h 0 W/m 4,3 km/h (1 Bft) 96,71 %
28.11.2016 07:00 -2,2 C -3,0 C -4,3 C 95 % 2 lf 1027,4 hPa 0,0 l/m 0,00 h 0,00 h 0 W/m 6,0 km/h (2 Bft) 94,86 %
28.11.2016 08:00 -2,5 C -3,6 C -4,4 C 95 % 1 lf 1028,3 hPa 0,0 l/m 0,10 h 0,00 h 18 W/m 3,3 km/h (1 Bft) 99,01 %
28.11.2016 09:00 -1,9 C -1,6 C -2,9 C 96 % 4 lf 1029,1 hPa 0,0 l/m 1,00 h 0,00 h 101 W/m 4,7 km/h (1 Bft) 93,67 %
28.11.2016 10:00 -0,4 C 1,7 C -1,7 C 97 % 14 lf 1029,8 hPa 0,2 l/m 1,00 h 0,10 h 181 W/m 14,5 km/h (3 Bft) 95,85 %
28.11.2016 11:00 1,5 C 6,4 C -0,9 C 96 % 15 lf 1029,9 hPa 0,0 l/m 1,00 h 0,10 h 254 W/m 19,0 km/h (3 Bft) 97,37 %
28.11.2016 12:00 2,9 C 6,7 C 0,4 C 88 % 7 lf 1029,9 hPa 0,0 l/m 0,97 h 0,00 h 274 W/m 19,4 km/h (3 Bft) 93,85 %
28.11.2016 13:00 3,9 C 8,7 C 1,4 C 79 % 0 lf 1030,0 hPa 0,0 l/m 1,00 h 0,00 h 242 W/m 21,4 km/h (4 Bft) 97,09 %
28.11.2016 14:00 4,3 C 7,3 C 2,1 C 69 % 0 lf 1030,2 hPa 0,0 l/m 1,00 h 0,00 h 152 W/m 22,8 km/h (4 Bft) 94,09 %
28.11.2016 15:00 3,1 C 3,4 C 1,0 C 70 % 0 lf 1030,5 hPa 0,0 l/m 0,33 h 0,00 h 54 W/m 21,0 km/h (4 Bft) 96,30 %
28.11.2016 16:00 2,0 C 1,3 C -0,8 C 74 % 0 lf 1030,9 hPa 0,0 l/m 0,33 h 0,00 h 19 W/m 15,7 km/h (3 Bft) 98,36 %
28.11.2016 17:00 1,1 C 0,5 C -1,5 C 76 % 0 lf 1031,2 hPa 0,0 l/m 0,00 h 0,00 h 0 W/m 15,1 km/h (3 Bft) 93,46 %
28.11.2016 18:00 0,4 C 0,0 C -1,8 C 81 % 0 lf 1031,8 hPa 0,0 l/m 0,00 h 0,00 h 0 W/m 16,7 km/h (3 Bft) 97,02 %
28.11.2016 19:00 0,0 C -0,2 C -2,4 C 84 % 0 lf 1032,2 hPa 0,0 l/m 0,00 h 0,00 h 0 W/m 14,0 km/h (3 Bft) 96,16 %
28.11.2016 20:00 -0,6 C -0,9 C -2,9 C 85 % 0 lf 1032,6 hPa 0,0 l/m 0,00 h 0,00 h 0 W/m 11,5 km/h (2 Bft) 96,18 %
28.11.2016 21:00 -1,1 C -1,7 C -3,8 C 86 % 0 lf 1033,1 hPa 0,0 l/m 0,00 h 0,00 h 5 W/m 9,3 km/h (2 Bft) 97,11 %
28.11.2016 22:00 -1,8 C -2,8 C -4,5 C 87 % 1 lf 1033,4 hPa 0,0 l/m 0,00 h 0,00 h 5 W/m 5,5 km/h (1 Bft) 95,04 %
28.11.2016 23:00 -2,5 C -2,6 C -5,0 C 88 % 1 lf 1033,4 hPa 0,0 l/m 0,00 h 0,00 h 5 W/m 7,2 km/h (2 Bft) 95,29 %
29.11.2016 00:00 -2,8 C -3,0 C -5,1 C 90 % 3 lf 1033,5 hPa 0,0 l/m 0,00 h 0,00 h 5 W/m 6,9 km/h (2 Bft) 96,45 %
29.11.2016 01:00 -3,1 C -3,2 C -5,5 C 91 % 2 lf 1033,4 hPa 0,0 l/m 0,00 h 0,00 h 5 W/m 6,9 km/h (2 Bft) 96,30 %
29.11.2016 02:00 -3,3 C -3,7 C -5,6 C 91 % 1 lf 1033,5 hPa 0,0 l/m 0,00 h 0,00 h 5 W/m 5,2 km/h (1 Bft) 95,52 %
29.11.2016 03:00 -3,7 C -4,1 C -6,0 C 92 % 0 lf 1033,2 hPa 0,0 l/m 0,00 h 0,00 h 5 W/m 1,6 km/h (1 Bft) 93,24 %
29.11.2016 04:00 -4,2 C -5,5 C -6,4 C 92 % 0 lf 1033,3 hPa 0,0 l/m 0,00 h 0,00 h 4 W/m 0,0 km/h (0 Bft) 97,63 %
29.11.2016 05:00 -4,8 C -6,1 C -7,0 C 92 % 0 lf 1033,3 hPa 0,0 l/m 0,00 h 0,00 h 5 W/m 0,0 km/h (0 Bft) 95,94 %
29.11.2016 06:00 -5,2 C -6,1 C -7,0 C 92 % 0 lf 1033,6 hPa 0,0 l/m 0,00 h 0,00 h 4 W/m 0,9 km/h (0 Bft) 95,91 %
29.11.2016 07:00 -5,3 C -6,8 C -7,2 C 93 % 0 lf 1033,8 hPa 0,0 l/m 0,00 h 0,00 h 0 W/m 0,2 km/h (0 Bft) 97,79 %
29.11.2016 08:00 -5,8 C -6,7 C -7,3 C 93 % 0 lf 1034,3 hPa 0,0 l/m 0,03 h 0,00 h 15 W/m 0,0 km/h (0 Bft) 94,80 %
29.11.2016 09:00 -5,4 C -5,0 C -6,0 C 93 % 0 lf 1034,7 hPa 0,0 l/m 1,00 h 0,00 h 93 W/m 0,4 km/h (0 Bft) 94,66 %
29.11.2016 10:00 -3,1 C 0,5 C -3,9 C 95 % 1 lf 1035,0 hPa 0,0 l/m 1,00 h 0,00 h 183 W/m 5,1 km/h (1 Bft) 95,51 %
29.11.2016 11:00 0,3 C 6,9 C -2,4 C 95 % 6 lf 1034,9 hPa 0,0 l/m 1,00 h 0,00 h 274 W/m 11,5 km/h (2 Bft) 95,11 %
29.11.2016 12:00 2,0 C 5,6 C 0,1 C 77 % 2 lf 1034,5 hPa 0,0 l/m 0,97 h 0,00 h 285 W/m 14,4 km/h (3 Bft) 97,60 %
29.11.2016 13:00 2,5 C 6,5 C 1,0 C 71 % 0 lf 1034,2 hPa 0,0 l/m 1,00 h 0,00 h 243 W/m 12,6 km/h (3 Bft) 96,79 %
29.11.2016 14:00 3,2 C 6,5 C 1,1 C 68 % 0 lf 1034,1 hPa 0,0 l/m 1,00 h 0,00 h 157 W/m 9,9 km/h (2 Bft) 98,15 %
29.11.2016 15:00 2,7 C 3,1 C 0,0 C 68 % 0 lf 1033,8 hPa 0,0 l/m 0,50 h 0,00 h 64 W/m 8,6 km/h (2 Bft) 93,38 %
29.11.2016 16:00 1,7 C -0,0 C -3,3 C 71 % 0 lf 1033,5 hPa 0,0 l/m 0,30 h 0,00 h 33 W/m 1,4 km/h (1 Bft) 98,01 %
29.11.2016 17:00 -0,4 C -2,8 C -4,7 C 76 % 0 lf 1033,4 hPa 0,0 l/m 0,00 h 0,00 h 2 W/m 0,0 km/h (0 Bft) 96,44 %
29.11.2016 18:00 -1,9 C -3,5 C -5,1 C 80 % 0 lf 1033,5 hPa 0,0 l/m 0,00 h 0,00 h 0 W/m 0,0 km/h (0 Bft) 96,24 %
29.11.2016 19:00 -2,6 C -3,6 C -5,6 C 84 % 1 lf 1033,7 hPa 0,0 l/m 0,00 h 0,00 h 2 W/m 0,0 km/h (0 Bft) 95,09 %
29.11.2016 20:00 -3,2 C -3,6 C -5,9 C 87 % 1 lf 1033,4 hPa 0,0 l/m 0,00 h 0,00 h 0 W/m 0,0 km/h (0 Bft) 95,37 %
29.11.2016 21:00 -3,6 C -3,7 C -5,9 C 89 % 1 lf 1033,0 hPa 0,0 l/m 0,00 h 0,00 h 5 W/m 4,6 km/h (1 Bft) 95,15 %
29.11.2016 22:00 -2,8 C -2,4 C -4,9 C 90 % 0 lf 1032,7 hPa 0,0 l/m 0,00 h 0,00 h 4 W/m 7,2 km/h (2 Bft) 95,93 %
29.11.2016 23:00 -3,0 C -4,5 C -6,4 C 88 % 0 lf 1033,4 hPa 0,0 l/m 0,00 h 0,00 h 5 W/m 2,7 km/h (1 Bft) 96,47 %
30.11.2016 00:00 -3,9 C -4,6 C -6,6 C 88 % 1 lf 1033,4 hPa 0,0 l/m 0,00 h 0,00 h 30 W/m 2,7 km/h (1 Bft) 96,87 %
30.11.2016 01:00 -4,4 C -5,2 C -6,9 C 89 % 1 lf 1033,1 hPa 0,0 l/m 0,00 h 0,00 h 0 W/m 3,2 km/h (1 Bft) 93,80 %
30.11.2016 02:00 -4,0 C -3,3 C -5,6 C 91 % 1 lf 1032,6 hPa 0,0 l/m 0,00 h 0,00 h 5 W/m 8,8 km/h (2 Bft) 95,09 %
30.11.2016 03:00 -4,0 C -4,9 C -6,8 C 92 % 0 lf 1032,9 hPa 0,0 l/m 0,00 h 0,00 h 0 W/m 2,9 km/h (1 Bft) 97,79 %
30.11.2016 04:00 -4,6 C -4,6 C -6,7 C 92 % 0 lf 1032,5 hPa 0,0 l/m 0,00 h 0,00 h 0 W/m 5,9 km/h (2 Bft) 94,39 %
30.11.2016 05:00 -4,9 C -5,1 C -7,2 C 92 % 0 lf 1032,9 hPa 0,0 l/m 0,00 h 0,00 h 5 W/m 4,3 km/h (1 Bft) 97,57 %
30.11.2016 06:00 -5,0 C -5,0 C -7,1 C 93 % 0 lf 1032,7 hPa 0,0 l/m 0,00 h 0,00 h 5 W/m 3,2 km/h (1 Bft) 94,26 %
30.11.2016 07:00 -5,2 C -5,0 C -7,2 C 93 % 0 lf 1032,9 hPa 0,0 l/m 0,00 h 0,00 h 5 W/m 4,1 km/h (1 Bft) 96,37 %
30.11.2016 08:00 -5,3 C -5,0 C -7,2 C 93 % 0 lf 1033,4 hPa 0,0 l/m 0,40 h 0,00 h 21 W/m 4,0 km/h (1 Bft) 96,30 %
30.11.2016 09:00 -4,7 C -3,0 C -5,6 C 94 % 1 lf 1033,3 hPa 0,0 l/m 0,98 h 0,00 h 112 W/m 7,4 km/h (2 Bft) 97,07 %
30.11.2016 10:00 -2,3 C 2,0 C -2,9 C 94 % 1 lf 1033,2 hPa 0,2 l/m 1,00 h 0,00 h 201 W/m 11,1 km/h (2 Bft) 95,16 %
30.11.2016 11:00 0,6 C 7,6 C -0,3 C 81 % 0 lf 1032,8 hPa 0,0 l/m 1,00 h 0,00 h 262 W/m 16,4 km/h (3 Bft) 97,04 %
30.11.2016 12:00 2,2 C 6,5 C 1,0 C 72 % 0 lf 1032,4 hPa 0,0 l/m 0,97 h 0,00 h 257 W/m 17,4 km/h (3 Bft) 93,80 %
30.11.2016 13:00 3,4 C 8,3 C 2,1 C 68 % 0 lf 1032,0 hPa 0,0 l/m 1,00 h 0,00 h 239 W/m 15,9 km/h (3 Bft) 95,11 %
30.11.2016 14:00 3,6 C 5,7 C 1,9 C 69 % 0 lf 1031,2 hPa 0,0 l/m 0,67 h 0,00 h 133 W/m 11,3 km/h (2 Bft) 98,22 %
30.11.2016 15:00 3,4 C 4,1 C 1,5 C 70 % 0 lf 1030,7 hPa 0,0 l/m 1,00 h 0,00 h 108 W/m 14,0 km/h (3 Bft) 93,10 %
30.11.2016 16:00 2,7 C 2,8 C 0,6 C 73 % 0 lf 1030,7 hPa 0,0 l/m 0,30 h 0,00 h 36 W/m 11,3 km/h (2 Bft) 96,31 %
30.11.2016 17:00 2,4 C 2,5 C 0,6 C 76 % 0 lf 1030,4 hPa 0,0 l/m 0,00 h 0,00 h 0 W/m 12,8 km/h (3 Bft) 97,44 %
30.11.2016 18:00 2,0 C 1,8 C -0,1 C 78 % 0 lf 1030,5 hPa 0,0 l/m 0,00 h 0,00 h 0 W/m 14,3 km/h (3 Bft) 95,44 %
30.11.2016 19:00 1,7 C 1,8 C 0,1 C 80 % 0 lf 1030,5 hPa 0,0 l/m 0,00 h 0,00 h 0 W/m 15,3 km/h (3 Bft) 95,58 %
30.11.2016 20:00 2,1 C 2,7 C 0,9 C 80 % 0 lf 1030,5 hPa 0,0 l/m 0,00 h 0,00 h 0 W/m 17,8 km/h (3 Bft) 97,20 %
30.11.2016 21:00 2,6 C 2,8 C 1,1 C 80 % 0 lf 1030,2 hPa 0,0 l/m 0,00 h 0,00 h 0 W/m 19,4 km/h (3 Bft) 93,80 %
30.11.2016 22:00 2,6 C 2,8 C 1,1 C 81 % 0 lf 1030,0 hPa 0,0 l/m 0,00 h 0,00 h 0 W/m 18,5 km/h (3 Bft) 98,72 %
30.11.2016 23:00 2,6 C 2,8 C 1,1 C 82 % 0 lf 1030,0 hPa 0,0 l/m 0,00 h 0,00 h 0 W/m 16,4 km/h (3 Bft) 95,43 %
01.12.2016 00:00 2,7 C 2,8 C 1,4 C 84 % 0 lf 1029,5 hPa 0,0 l/m 0,00 h 0,00 h 21 W/m 18,5 km/h (3 Bft) 87,67 %
01.12.2016 01:00 2,7 C 3,0 C 1,7 C 85 % 0 lf 1029,5 hPa 0,0 l/m 0,00 h 0,00 h 0 W/m 15,3 km/h (3 Bft) 97,78 %
01.12.2016 02:00 2,9 C 3,3 C 1,7 C 86 % 0 lf 1029,1 hPa 0,0 l/m 0,00 h 0,00 h 0 W/m 15,9 km/h (3 Bft) 96,39 %
01.12.2016 03:00 3,1 C 3,3 C 1,7 C 88 % 0 lf 1028,8 hPa 0,0 l/m 0,00 h 0,00 h 0 W/m 17,1 km/h (3 Bft) 95,00 %
01.12.2016 04:00 3,1 C 3,3 C 1,8 C 88 % 0 lf 1028,3 hPa 0,0 l/m 0,00 h 0,00 h 0 W/m 18,7 km/h (3 Bft) 95,93 %
01.12.2016 05:00 3,1 C 3,3 C 1,7 C 89 % 0 lf 1027,9 hPa 0,0 l/m 0,00 h 0,00 h 0 W/m 18,2 km/h (3 Bft) 96,69 %
01.12.2016 06:00 3,2 C 3,3 C 2,2 C 89 % 0 lf 1027,6 hPa 0,0 l/m 0,00 h 0,00 h 0 W/m 18,4 km/h (3 Bft) 95,81 %
01.12.2016 07:00 3,2 C 3,3 C 2,2 C 90 % 0 lf 1027,4 hPa 0,0 l/m 0,00 h 0,00 h 0 W/m 18,3 km/h (3 Bft) 96,32 %
01.12.2016 08:00 3,3 C 3,7 C 2,2 C 90 % 0 lf 1027,6 hPa 0,0 l/m 0,00 h 0,00 h 13 W/m 18,0 km/h (3 Bft) 94,47 %
01.12.2016 09:00 3,5 C 4,1 C 2,6 C 91 % 0 lf 1027,4 hPa 0,0 l/m 0,00 h 0,00 h 47 W/m 20,0 km/h (4 Bft) 97,08 %
01.12.2016 10:00 4,1 C 4,9 C 3,6 C 91 % 0 lf 1026,9 hPa 0,0 l/m 0,00 h 0,00 h 82 W/m 22,9 km/h (4 Bft) 96,08 %
01.12.2016 11:00 4,9 C 6,0 C 4,7 C 91 % 0 lf 1026,2 hPa 0,0 l/m 0,13 h 0,00 h 110 W/m 24,7 km/h (4 Bft) 97,58 %
01.12.2016 12:00 5,1 C 5,9 C 4,6 C 91 % 0 lf 1026,0 hPa 0,0 l/m 0,00 h 0,00 h 77 W/m 21,7 km/h (4 Bft) 93,90 %
01.12.2016 13:00 5,3 C 6,0 C 4,7 C 91 % 0 lf 1025,3 hPa 0,0 l/m 0,00 h 0,00 h 63 W/m 21,9 km/h (4 Bft) 96,51 %
01.12.2016 14:00 5,4 C 6,1 C 4,5 C 91 % 0 lf 1024,9 hPa 0,0 l/m 0,00 h 0,00 h 40 W/m 18,9 km/h (3 Bft) 96,79 %
01.12.2016 15:00 5,6 C 6,1 C 4,4 C 92 % 0 lf 1024,4 hPa 0,0 l/m 0,00 h 0,00 h 30 W/m 18,5 km/h (3 Bft) 96,38 %
01.12.2016 16:00 5,7 C 6,1 C 4,4 C 93 % 0 lf 1024,2 hPa 0,0 l/m 0,00 h 0,00 h 14 W/m 16,2 km/h (3 Bft) 94,97 %
01.12.2016 17:00 5,8 C 6,1 C 4,4 C 94 % 0 lf 1023,9 hPa 0,0 l/m 0,00 h 0,00 h 0 W/m 21,5 km/h (4 Bft) 97,02 %
01.12.2016 18:00 5,5 C 5,6 C 4,4 C 94 % 0 lf 1023,5 hPa 0,0 l/m 0,00 h 0,00 h 0 W/m 24,6 km/h (4 Bft) 95,27 %
01.12.2016 19:00 5,4 C 5,6 C 4,4 C 95 % 0 lf 1023,3 hPa 0,0 l/m 0,00 h 0,00 h 0 W/m 19,4 km/h (3 Bft) 96,95 %
01.12.2016 20:00 5,7 C 6,0 C 4,5 C 96 % 0 lf 1023,3 hPa 0,0 l/m 0,00 h 0,00 h 0 W/m 17,9 km/h (3 Bft) 94,57 %
01.12.2016 21:00 6,0 C 6,2 C 5,0 C 96 % 0 lf 1023,0 hPa 0,0 l/m 0,00 h 0,00 h 0 W/m 17,1 km/h (3 Bft) 95,20 %
01.12.2016 22:00 6,3 C 6,7 C 5,0 C 96 % 2 lf 1022,6 hPa 0,0 l/m 0,00 h 0,07 h 5 W/m 17,1 km/h (3 Bft) 98,54 %
01.12.2016 23:00 6,4 C 6,7 C 5,0 C 97 % 2 lf 1022,3 hPa 0,0 l/m 0,00 h 0,03 h 0 W/m 16,6 km/h (3 Bft) 94,43 %
02.12.2016 00:00 6,5 C 6,7 C 5,4 C 97 % 1 lf 1022,3 hPa 0,0 l/m 0,00 h 0,00 h 0 W/m 14,4 km/h (3 Bft) 94,95 %
02.12.2016 01:00 6,8 C 7,1 C 5,6 C 97 % 1 lf 1022,1 hPa 0,0 l/m 0,00 h 0,00 h 0 W/m 16,0 km/h (3 Bft) 97,67 %
02.12.2016 02:00 7,1 C 7,2 C 5,7 C 97 % 12 lf 1022,1 hPa 0,0 l/m 0,00 h 0,07 h 1 W/m 14,9 km/h (3 Bft) 95,77 %
02.12.2016 03:00 7,1 C 7,2 C 5,5 C 97 % 11 lf 1021,6 hPa 0,0 l/m 0,00 h 0,00 h 0 W/m 14,8 km/h (3 Bft) 95,88 %
02.12.2016 04:00 7,1 C 7,0 C 5,5 C 97 % 9 lf 1021,5 hPa 0,0 l/m 0,00 h 0,10 h 0 W/m 14,8 km/h (3 Bft) 97,05 %
02.12.2016 05:00 6,8 C 6,7 C 5,0 C 96 % 15 lf 1021,3 hPa 0,0 l/m 0,00 h 0,00 h 0 W/m 13,0 km/h (3 Bft) 94,34 %
02.12.2016 06:00 6,8 C 7,0 C 5,0 C 96 % 15 lf 1021,3 hPa 0,0 l/m 0,00 h 0,03 h 0 W/m 12,1 km/h (2 Bft) 97,84 %
02.12.2016 07:00 6,9 C 6,7 C 5,2 C 96 % 15 lf 1021,4 hPa 0,0 l/m 0,00 h 0,00 h 0 W/m 12,9 km/h (3 Bft) 96,58 %
02.12.2016 08:00 6,9 C 6,8 C 5,4 C 97 % 15 lf 1021,8 hPa 0,0 l/m 0,00 h 0,07 h 6 W/m 12,8 km/h (3 Bft) 93,62 %
02.12.2016 09:00 7,1 C 7,5 C 5,9 C 97 % 15 lf 1022,0 hPa 0,2 l/m 0,00 h 0,13 h 45 W/m 12,2 km/h (2 Bft) 96,64 %
02.12.2016 10:00 7,5 C 8,0 C 6,7 C 98 % 15 lf 1022,2 hPa 0,2 l/m 0,00 h 0,65 h 67 W/m 12,6 km/h (3 Bft) 97,56 %
02.12.2016 11:00 7,7 C 7,8 C 6,7 C 98 % 15 lf 1022,3 hPa 0,6 l/m 0,00 h 0,57 h 73 W/m 9,9 km/h (2 Bft) 94,86 %
02.12.2016 12:00 7,8 C 8,0 C 6,7 C 98 % 15 lf 1022,4 hPa 0,2 l/m 0,00 h 0,43 h 85 W/m 11,8 km/h (2 Bft) 96,17 %
02.12.2016 13:00 7,3 C 7,5 C 6,3 C 98 % 15 lf 1022,5 hPa 0,0 l/m 0,07 h 0,10 h 98 W/m 11,6 km/h (2 Bft) 95,72 %
02.12.2016 14:00 6,8 C 7,4 C 6,0 C 97 % 15 lf 1022,3 hPa 0,0 l/m 0,17 h 0,00 h 78 W/m 3,9 km/h (1 Bft) 95,66 %
02.12.2016 15:00 7,0 C 7,1 C 5,8 C 97 % 15 lf 1022,3 hPa 0,0 l/m 0,00 h 0,00 h 45 W/m 5,3 km/h (1 Bft) 96,80 %
02.12.2016 16:00 6,7 C 6,1 C 4,5 C 96 % 15 lf 1022,5 hPa 0,0 l/m 0,03 h 0,00 h 15 W/m 5,3 km/h (1 Bft) 94,30 %
02.12.2016 17:00 5,9 C 4,7 C 2,9 C 95 % 15 lf 1022,6 hPa 0,0 l/m 0,00 h 0,00 h 0 W/m 2,2 km/h (1 Bft) 96,44 %
02.12.2016 18:00 4,7 C 2,8 C 0,8 C 94 % 15 lf 1022,7 hPa 0,0 l/m 0,00 h 0,00 h 1 W/m 0,2 km/h (0 Bft) 95,32 %
02.12.2016 19:00 3,4 C 1,6 C -0,3 C 94 % 15 lf 1023,0 hPa 0,0 l/m 0,00 h 0,00 h 2 W/m 0,0 km/h (0 Bft) 98,37 %
02.12.2016 20:00 2,4 C 1,2 C -0,3 C 94 % 15 lf 1023,3 hPa 0,0 l/m 0,00 h 0,00 h 0 W/m 1,9 km/h (1 Bft) 93,81 %
02.12.2016 21:00 2,0 C 1,2 C -0,3 C 94 % 15 lf 1023,4 hPa 0,0 l/m 0,00 h 0,00 h 0 W/m 1,1 km/h (1 Bft) 95,80 %
02.12.2016 22:00 1,4 C -0,4 C -1,9 C 94 % 15 lf 1023,4 hPa 0,0 l/m 0,00 h 0,00 h 0 W/m 0,0 km/h (0 Bft) 97,51 %
02.12.2016 23:00 0,5 C -1,1 C -2,4 C 94 % 15 lf 1023,7 hPa 0,0 l/m 0,00 h 0,00 h 1 W/m 0,0 km/h (0 Bft) 95,37 %
03.12.2016 00:00 -0,3 C -1,3 C -2,8 C 94 % 6 lf 1023,9 hPa 0,0 l/m 0,00 h 0,00 h 2 W/m 0,0 km/h (0 Bft) 95,37 %
03.12.2016 01:00 -0,8 C -2,0 C -2,4 C 94 % 2 lf 1024,0 hPa 0,0 l/m 0,00 h 0,00 h 0 W/m 0,0 km/h (0 Bft) 95,73 %
03.12.2016 02:00 -1,3 C -2,2 C -3,2 C 95 % 2 lf 1024,0 hPa 0,0 l/m 0,00 h 0,00 h 0 W/m 0,7 km/h (0 Bft) 95,65 %
03.12.2016 03:00 -1,7 C -2,7 C -3,8 C 95 % 1 lf 1024,0 hPa 0,0 l/m 0,00 h 0,00 h 0 W/m 0,3 km/h (0 Bft) 96,08 %
03.12.2016 04:00 -2,1 C -3,1 C -4,0 C 95 % 1 lf 1024,1 hPa 0,0 l/m 0,00 h 0,00 h 0 W/m 0,0 km/h (0 Bft) 96,77 %
03.12.2016 05:00 -2,4 C -3,3 C -4,3 C 95 % 1 lf 1024,0 hPa 0,0 l/m 0,00 h 0,00 h 0 W/m 0,3 km/h (0 Bft) 95,01 %
03.12.2016 06:00 -2,7 C -3,3 C -4,3 C 95 % 1 lf 1024,4 hPa 0,0 l/m 0,00 h 0,00 h 3 W/m 0,7 km/h (0 Bft) 94,33 %
03.12.2016 07:00 -2,7 C -2,6 C -3,8 C 96 % 1 lf 1024,8 hPa 0,0 l/m 0,00 h 0,00 h 3 W/m 1,1 km/h (0 Bft) 96,44 %
03.12.2016 08:00 -2,7 C -3,2 C -4,2 C 96 % 1 lf 1025,2 hPa 0,0 l/m 0,43 h 0,00 h 20 W/m 1,5 km/h (1 Bft) 97,93 %
03.12.2016 09:00 -2,6 C -2,0 C -3,3 C 96 % 2 lf 1025,5 hPa 0,0 l/m 0,97 h 0,00 h 80 W/m 3,4 km/h (1 Bft) 94,73 %
03.12.2016 10:00 -1,6 C -0,6 C -2,4 C 97 % 5 lf 1026,0 hPa 0,0 l/m 1,00 h 0,00 h 188 W/m 6,4 km/h (2 Bft) 96,65 %
03.12.2016 11:00 -0,3 C 2,7 C -1,9 C 97 % 15 lf 1026,1 hPa 0,2 l/m 0,97 h 0,07 h 206 W/m 7,8 km/h (2 Bft) 95,64 %
03.12.2016 12:00 -0,6 C 1,5 C -1,7 C 97 % 15 lf 1025,9 hPa 0,0 l/m 0,87 h 0,00 h 189 W/m 6,8 km/h (2 Bft) 95,11 %
03.12.2016 13:00 0,0 C 2,8 C -0,8 C 97 % 15 lf 1025,8 hPa 0,0 l/m 1,00 h 0,00 h 226 W/m 3,6 km/h (1 Bft) 96,76 %
03.12.2016 14:00 0,2 C 1,3 C -1,2 C 97 % 15 lf 1025,5 hPa 0,0 l/m 0,87 h 0,00 h 156 W/m 5,3 km/h (1 Bft) 95,80 %
03.12.2016 15:00 -0,5 C -0,2 C -1,6 C 97 % 15 lf 1025,4 hPa 0,0 l/m 0,80 h 0,00 h 58 W/m 3,3 km/h (1 Bft) 96,73 %
03.12.2016 16:00 -0,9 C -1,1 C -1,7 C 97 % 13 lf 1025,7 hPa 0,0 l/m 0,00 h 0,00 h 6 W/m 3,7 km/h (1 Bft) 94,28 %
03.12.2016 17:00 -1,5 C -1,8 C -2,7 C 97 % 4 lf 1025,8 hPa 0,0 l/m 0,00 h 0,00 h 5 W/m 0,6 km/h (0 Bft) 96,81 %
03.12.2016 18:00 -2,1 C -2,6 C -3,7 C 97 % 2 lf 1025,9 hPa 0,0 l/m 0,00 h 0,00 h 2 W/m 0,9 km/h (0 Bft) 96,57 %
03.12.2016 19:00 -2,7 C -3,3 C -4,4 C 97 % 2 lf 1026,0 hPa 0,0 l/m 0,00 h 0,00 h 0 W/m 2,0 km/h (1 Bft) 96,75 %
03.12.2016 20:00 -3,3 C -3,7 C -4,9 C 97 % 2 lf 1026,1 hPa 0,0 l/m 0,00 h 0,00 h 0 W/m 5,2 km/h (1 Bft) 93,55 %
03.12.2016 21:00 -3,9 C -4,4 C -5,6 C 97 % 1 lf 1026,2 hPa 0,0 l/m 0,00 h 0,00 h 1 W/m 2,0 km/h (1 Bft) 96,14 %
03.12.2016 22:00 -4,3 C -4,3 C -5,2 C 97 % 1 lf 1026,3 hPa 0,0 l/m 0,00 h 0,00 h 5 W/m 6,2 km/h (2 Bft) 98,51 %
03.12.2016 23:00 -4,3 C -4,2 C -5,0 C 97 % 1 lf 1026,3 hPa 0,0 l/m 0,00 h 0,00 h 4 W/m 6,2 km/h (2 Bft) 94,18 %
04.12.2016 00:00 -4,4 C -4,0 C -5,0 C 97 % 1 lf 1026,6 hPa 0,0 l/m 0,00 h 0,00 h 2 W/m 5,5 km/h (1 Bft) 97,39 %
04.12.2016 01:00 -4,4 C -4,2 C -5,0 C 97 % 1 lf 1026,7 hPa 0,0 l/m 0,00 h 0,00 h 2 W/m 4,6 km/h (1 Bft) 95,30 %
04.12.2016 02:00 -4,3 C -4,0 C -5,0 C 97 % 1 lf 1026,9 hPa 0,0 l/m 0,00 h 0,00 h 0 W/m 5,7 km/h (1 Bft) 95,53 %
04.12.2016 03:00 -4,4 C -4,3 C -5,1 C 97 % 1 lf 1026,6 hPa 0,0 l/m 0,00 h 0,00 h 0 W/m 5,3 km/h (1 Bft) 97,79 %
04.12.2016 04:00 -4,7 C -4,8 C -5,9 C 97 % 1 lf 1026,4 hPa 0,0 l/m 0,00 h 0,00 h 0 W/m 4,8 km/h (1 Bft) 96,65 %
04.12.2016 05:00 -5,0 C -5,0 C -6,1 C 97 % 1 lf 1026,3 hPa 0,0 l/m 0,00 h 0,00 h 3 W/m 3,9 km/h (1 Bft) 94,29 %
04.12.2016 06:00 -5,2 C -5,8 C -6,5 C 97 % 1 lf 1026,4 hPa 0,0 l/m 0,00 h 0,00 h 2 W/m 0,6 km/h (0 Bft) 95,94 %
04.12.2016 07:00 -5,6 C -7,0 C -7,7 C 97 % 1 lf 1026,7 hPa 0,0 l/m 0,00 h 0,00 h 4 W/m 0,0 km/h (0 Bft) 97,92 %
04.12.2016 08:00 -6,0 C -7,1 C -7,8 C 97 % 1 lf 1026,9 hPa 0,0 l/m 0,37 h 0,00 h 17 W/m 0,0 km/h (0 Bft) 95,11 %
04.12.2016 09:00 -6,0 C -5,7 C -6,6 C 97 % 1 lf 1027,3 hPa 0,0 l/m 0,77 h 0,00 h 97 W/m 0,0 km/h (0 Bft) 97,01 %
04.12.2016 10:00 -4,1 C -2,4 C -4,6 C 98 % 2 lf 1027,6 hPa 0,0 l/m 1,00 h 0,00 h 175 W/m 2,4 km/h (1 Bft) 95,31 %
04.12.2016 11:00 -1,1 C 3,3 C -2,7 C 98 % 8 lf 1027,2 hPa 0,2 l/m 1,00 h 0,03 h 302 W/m 9,2 km/h (2 Bft) 96,94 %
04.12.2016 12:00 0,6 C 4,5 C -1,5 C 98 % 15 lf 1026,8 hPa 0,0 l/m 0,97 h 0,00 h 329 W/m 12,2 km/h (2 Bft) 96,39 %
04.12.2016 13:00 2,0 C 7,6 C -1,0 C 97 % 15 lf 1026,4 hPa 0,0 l/m 1,00 h 0,00 h 255 W/m 11,9 km/h (2 Bft) 94,38 %
04.12.2016 14:00 3,7 C 6,9 C -0,2 C 83 % 9 lf 1025,9 hPa 0,0 l/m 1,00 h 0,00 h 225 W/m 8,9 km/h (2 Bft) 94,66 %
04.12.2016 15:00 3,3 C 3,3 C -1,4 C 78 % 0 lf 1025,9 hPa 0,0 l/m 0,90 h 0,00 h 84 W/m 5,5 km/h (1 Bft) 93,74 %
04.12.2016 16:00 1,9 C -0,0 C -3,1 C 79 % 1 lf 1025,9 hPa 0,0 l/m 0,23 h 0,00 h 16 W/m 3,9 km/h (1 Bft) 97,92 %
04.12.2016 17:00 -0,3 C -2,0 C -4,4 C 83 % 2 lf 1025,9 hPa 0,0 l/m 0,00 h 0,00 h 3 W/m 6,8 km/h (2 Bft) 94,87 %
04.12.2016 18:00 -0,8 C -0,0 C -3,5 C 88 % 1 lf 1025,8 hPa 0,0 l/m 0,00 h 0,00 h 5 W/m 12,7 km/h (3 Bft) 93,85 %
04.12.2016 19:00 0,3 C 0,7 C -2,7 C 85 % 0 lf 1026,0 hPa 0,0 l/m 0,00 h 0,00 h 0 W/m 13,7 km/h (3 Bft) 97,51 %
04.12.2016 20:00 0,5 C 0,9 C -2,1 C 79 % 0 lf 1026,0 hPa 0,0 l/m 0,00 h 0,00 h 0 W/m 20,3 km/h (4 Bft) 96,08 %
04.12.2016 21:00 0,3 C 0,5 C -2,3 C 75 % 0 lf 1026,1 hPa 0,0 l/m 0,00 h 0,00 h 0 W/m 20,1 km/h (4 Bft) 94,24 %
04.12.2016 22:00 0,1 C 0,2 C -2,7 C 74 % 0 lf 1026,1 hPa 0,0 l/m 0,00 h 0,00 h 0 W/m 19,6 km/h (3 Bft) 95,66 %
04.12.2016 23:00 -0,1 C 0,1 C -2,7 C 76 % 0 lf 1026,1 hPa 0,0 l/m 0,00 h 0,00 h 0 W/m 19,2 km/h (3 Bft) 97,51 %
Min-Datum _ 04.12.16 04.12.16 29.11.16 28.11.16 28.11.16 02.12.16 - - - - 28.11.16 01.12.16
_ Min-Zeit 09:06 08:10 07:46 14:40 12:30 04:54 - - - - 04:58 00:02
Minimum _ -6,3 C -7,8 C -7,8 C 67 % 0 lf 1021,3 hPa - - - - 0,0 km/h (0 Bft) 5,00 %
Max-Datum _ 02.12.16 28.11.16 02.12.16 02.12.16 28.11.16 29.11.16 02.12.16 28.11.16 28.11.16 04.12.16 28.11.16 28.11.16
_ Max-Zeit 11:38 14:00 11:34 10:06 00:00 10:32 11:06 08:54 03:20 13:02 14:02 01:12
Maximum _ 7,8 C 11,7 C 7,2 C 98 % 15 lf 1035,2 hPa 0,6 l/m 0,03 h 0,03 h 465 W/m 31,4 km/h
O (5 Bft)
100,00 %
Durchschnitt _ 0,6 C 0,9 C -1,3 C 90 % 4 lf 1027,8 hPa #2,0 l/m #35:23 h #2:41 h 73 W/m 9,3 km/h (2 Bft) 95,90 %
© 2016 W. Hausmann